PWSweather.com
Personal Weather Stations
Station Observations
MEREWETHER
MerewetherAU

MerewetherAU

Lat: -32.945, Lon: 151.756

Elevation: 180

Station Type: Davis Vantage Pro

Latest ConditionsUpdated 12:14:05 PM GMT+10:10 Tuesday, Mar 28, 2017
Currently Today's Max Today's Min Today's Average
Temperature 78.0°F25.6°C 79.3°F26.3°C 69.5°F20.8°C 73.0°F22.8°C
Dew Point 70.6°F21.4°C 71.3°F21.8°C 66.2°F19.0°C 68.6°F20.3°C
Winds 4.0 mph SE6.4 kmh SE 13.0 mph S20.9 kmh S - 4.6 mph 7.4 kmh
Wind Gusts 12.0 mph19.3 kmh 20.0 mph32.2 kmh - -
Humidity 78% 91% 74% 86%
Pressure 29.90 in1012.5 mb 29.94 in1013.9 mb 29.80 in1009.1 mb -
Hour Temp Dew Point Humidity Winds Wind Gusts Pressure Precip Precip Rate Daily Precip Total
12:14 PM 78.0°F25.6°C 70.6°F21.4°C 78% 4.0 mph SE6.4 kmh SE 12.0 mph19.3 kmh 29.90 in1012.5 mb 0.00 in0.0 mm 0.00 in0.0 mm 0.00 in0.0 mm
12:04 PM 79.1°F26.2°C 71.3°F21.8°C 77% 6.0 mph SSE9.7 kmh SSE 10.0 mph16.1 kmh 29.90 in1012.5 mb 0.00 in0.0 mm 0.00 in0.0 mm 0.00 in0.0 mm
11:54 AM 78.9°F26.1°C 71.1°F21.7°C 77% 5.0 mph S8.0 kmh S 11.0 mph17.7 kmh 29.91 in1012.9 mb 0.00 in0.0 mm 0.00 in0.0 mm 0.00 in0.0 mm
11:44 AM 78.7°F25.9°C 70.5°F21.4°C 76% 6.0 mph S9.7 kmh S 11.0 mph17.7 kmh 29.91 in1012.9 mb 0.00 in0.0 mm 0.00 in0.0 mm 0.00 in0.0 mm
11:34 AM 79.3°F26.3°C 70.3°F21.3°C 74% 7.0 mph SE11.3 kmh SE 8.0 mph12.9 kmh 29.91 in1012.9 mb 0.00 in0.0 mm 0.00 in0.0 mm 0.00 in0.0 mm
11:24 AM 78.5°F25.8°C 70.3°F21.3°C 76% 3.0 mph SSW4.8 kmh SSW 11.0 mph17.7 kmh 29.92 in1013.2 mb 0.00 in0.0 mm 0.00 in0.0 mm 0.00 in0.0 mm
11:14 AM 78.2°F25.7°C 70.0°F21.1°C 76% 6.0 mph S9.7 kmh S 11.0 mph17.7 kmh 29.92 in1013.2 mb 0.00 in0.0 mm 0.00 in0.0 mm 0.00 in0.0 mm
11:04 AM 78.3°F25.7°C 70.1°F21.2°C 76% 7.0 mph S11.3 kmh S 10.0 mph16.1 kmh 29.92 in1013.2 mb 0.00 in0.0 mm 0.00 in0.0 mm 0.00 in0.0 mm
10:54 AM 78.6°F25.9°C 70.8°F21.6°C 77% 4.0 mph S6.4 kmh S 10.0 mph16.1 kmh 29.93 in1013.5 mb 0.00 in0.0 mm 0.00 in0.0 mm 0.00 in0.0 mm
10:44 AM 78.4°F25.8°C 70.2°F21.2°C 76% 7.0 mph SSE11.3 kmh SSE 11.0 mph17.7 kmh 29.93 in1013.5 mb 0.00 in0.0 mm 0.00 in0.0 mm 0.00 in0.0 mm
10:34 AM 78.2°F25.7°C 70.0°F21.1°C 76% 5.0 mph S8.0 kmh S 11.0 mph17.7 kmh 29.93 in1013.5 mb 0.00 in0.0 mm 0.00 in0.0 mm 0.00 in0.0 mm
10:24 AM 77.4°F25.2°C 70.0°F21.1°C 78% 1.0 mph S1.6 kmh S 11.0 mph17.7 kmh 29.93 in1013.5 mb 0.00 in0.0 mm 0.00 in0.0 mm 0.00 in0.0 mm
10:14 AM 76.7°F24.8°C 70.0°F21.1°C 80% 10.0 mph S16.1 kmh S 11.0 mph17.7 kmh 29.93 in1013.5 mb 0.00 in0.0 mm 0.00 in0.0 mm 0.00 in0.0 mm
10:04 AM 76.7°F24.8°C 70.0°F21.1°C 80% 6.0 mph SW9.7 kmh SW 10.0 mph16.1 kmh 29.93 in1013.5 mb 0.00 in0.0 mm 0.00 in0.0 mm 0.00 in0.0 mm
09:54 AM 76.6°F24.8°C 70.3°F21.3°C 81% 8.0 mph S12.9 kmh S 11.0 mph17.7 kmh 29.94 in1013.9 mb 0.00 in0.0 mm 0.00 in0.0 mm 0.00 in0.0 mm
09:44 AM 76.2°F24.6°C 70.3°F21.3°C 82% 4.0 mph S6.4 kmh S 11.0 mph17.7 kmh 29.94 in1013.9 mb 0.00 in0.0 mm 0.00 in0.0 mm 0.00 in0.0 mm
09:34 AM 75.9°F24.4°C 70.0°F21.1°C 82% 6.0 mph S9.7 kmh S 9.0 mph14.5 kmh 29.94 in1013.9 mb 0.00 in0.0 mm 0.00 in0.0 mm 0.00 in0.0 mm
09:24 AM 75.4°F24.1°C 69.9°F21.1°C 83% 4.0 mph S6.4 kmh S 11.0 mph17.7 kmh 29.94 in1013.9 mb 0.00 in0.0 mm 0.00 in0.0 mm 0.00 in0.0 mm
09:14 AM 74.9°F23.8°C 69.7°F20.9°C 84% 2.0 mph S3.2 kmh S 13.0 mph20.9 kmh 29.94 in1013.9 mb 0.00 in0.0 mm 0.00 in0.0 mm 0.00 in0.0 mm
09:04 AM 74.5°F23.6°C 69.7°F20.9°C 85% 5.0 mph SW8.0 kmh SW 13.0 mph20.9 kmh 29.94 in1013.9 mb 0.00 in0.0 mm 0.00 in0.0 mm 0.00 in0.0 mm
08:54 AM 74.4°F23.6°C 69.6°F20.9°C 85% 3.0 mph S4.8 kmh S 9.0 mph14.5 kmh 29.93 in1013.5 mb 0.00 in0.0 mm 0.00 in0.0 mm 0.00 in0.0 mm
08:44 AM 74.2°F23.4°C 69.7°F20.9°C 86% 4.0 mph S6.4 kmh S 14.0 mph22.5 kmh 29.93 in1013.5 mb 0.00 in0.0 mm 0.00 in0.0 mm 0.00 in0.0 mm
08:34 AM 74.0°F23.3°C 69.5°F20.8°C 86% 6.0 mph S9.7 kmh S 14.0 mph22.5 kmh 29.93 in1013.5 mb 0.00 in0.0 mm 0.00 in0.0 mm 0.00 in0.0 mm
08:24 AM 73.8°F23.2°C 69.7°F20.9°C 87% 3.0 mph SW4.8 kmh SW 13.0 mph20.9 kmh 29.93 in1013.5 mb 0.00 in0.0 mm 0.00 in0.0 mm 0.00 in0.0 mm
08:14 AM 73.5°F23.1°C 69.7°F20.9°C 88% 3.0 mph SSW4.8 kmh SSW 13.0 mph20.9 kmh 29.93 in1013.5 mb 0.00 in0.0 mm 0.00 in0.0 mm 0.00 in0.0 mm
08:04 AM 73.2°F22.9°C 69.4°F20.8°C 88% 7.0 mph SW11.3 kmh SW 13.0 mph20.9 kmh 29.92 in1013.2 mb 0.00 in0.0 mm 0.00 in0.0 mm 0.00 in0.0 mm
07:54 AM 73.1°F22.8°C 69.7°F20.9°C 89% 8.0 mph S12.9 kmh S 13.0 mph20.9 kmh 29.92 in1013.2 mb 0.00 in0.0 mm 0.00 in0.0 mm 0.00 in0.0 mm
07:44 AM 72.9°F22.7°C 69.5°F20.8°C 89% 11.0 mph S17.7 kmh S 14.0 mph22.5 kmh 29.92 in1013.2 mb 0.00 in0.0 mm 0.00 in0.0 mm 0.00 in0.0 mm
07:34 AM 73.1°F22.8°C 69.7°F20.9°C 89% 4.0 mph SSE6.4 kmh SSE 16.0 mph25.7 kmh 29.91 in1012.9 mb 0.00 in0.0 mm 0.00 in0.0 mm 0.00 in0.0 mm
07:24 AM 73.1°F22.8°C 70.0°F21.1°C 90% 7.0 mph SSW11.3 kmh SSW 18.0 mph29.0 kmh 29.91 in1012.9 mb 0.00 in0.0 mm 0.00 in0.0 mm 0.00 in0.0 mm
07:14 AM 73.0°F22.8°C 69.9°F21.1°C 90% 5.0 mph SW8.0 kmh SW 18.0 mph29.0 kmh 29.91 in1012.9 mb 0.00 in0.0 mm 0.00 in0.0 mm 0.00 in0.0 mm
07:04 AM 73.0°F22.8°C 69.9°F21.1°C 90% 10.0 mph SW16.1 kmh SW 16.0 mph25.7 kmh 29.90 in1012.5 mb 0.00 in0.0 mm 0.00 in0.0 mm 0.00 in0.0 mm
06:54 AM 73.0°F22.8°C 69.9°F21.1°C 90% 8.0 mph SE12.9 kmh SE 18.0 mph29.0 kmh 29.90 in1012.5 mb 0.00 in0.0 mm 0.00 in0.0 mm 0.00 in0.0 mm
06:44 AM 73.3°F22.9°C 70.2°F21.2°C 90% 13.0 mph S20.9 kmh S 18.0 mph29.0 kmh 29.89 in1012.2 mb 0.00 in0.0 mm 0.00 in0.0 mm 0.00 in0.0 mm
06:34 AM 73.3°F22.9°C 70.2°F21.2°C 90% 8.0 mph S12.9 kmh S 18.0 mph29.0 kmh 29.89 in1012.2 mb 0.00 in0.0 mm 0.00 in0.0 mm 0.00 in0.0 mm
06:24 AM 73.3°F22.9°C 70.2°F21.2°C 90% 11.0 mph SE17.7 kmh SE 18.0 mph29.0 kmh 29.89 in1012.2 mb 0.00 in0.0 mm 0.00 in0.0 mm 0.00 in0.0 mm
06:14 AM 73.3°F22.9°C 70.2°F21.2°C 90% 10.0 mph S16.1 kmh S 16.0 mph25.7 kmh 29.89 in1012.2 mb 0.00 in0.0 mm 0.00 in0.0 mm 0.00 in0.0 mm
06:04 AM 73.3°F22.9°C 70.5°F21.4°C 91% 11.0 mph S17.7 kmh S 20.0 mph32.2 kmh 29.88 in1011.9 mb 0.00 in0.0 mm 0.00 in0.0 mm 0.00 in0.0 mm
05:54 AM 73.4°F23.0°C 70.3°F21.3°C 90% 11.0 mph SSW17.7 kmh SSW 20.0 mph32.2 kmh 29.87 in1011.5 mb 0.00 in0.0 mm 0.00 in0.0 mm 0.00 in0.0 mm
05:44 AM 73.6°F23.1°C 70.8°F21.6°C 91% 5.0 mph SSE8.0 kmh SSE 16.0 mph25.7 kmh 29.87 in1011.5 mb 0.00 in0.0 mm 0.00 in0.0 mm 0.00 in0.0 mm
05:34 AM 73.1°F22.8°C 70.0°F21.1°C 90% 4.0 mph S6.4 kmh S 12.0 mph19.3 kmh 29.86 in1011.2 mb 0.00 in0.0 mm 0.00 in0.0 mm 0.00 in0.0 mm
05:24 AM 72.7°F22.6°C 69.3°F20.7°C 89% 8.0 mph S12.9 kmh S 12.0 mph19.3 kmh 29.85 in1010.8 mb 0.00 in0.0 mm 0.00 in0.0 mm 0.00 in0.0 mm
05:14 AM 72.0°F22.2°C 69.2°F20.7°C 91% 4.0 mph S6.4 kmh S 12.0 mph19.3 kmh 29.85 in1010.8 mb 0.00 in0.0 mm 0.00 in0.0 mm 0.00 in0.0 mm
05:04 AM 69.7°F20.9°C 66.9°F19.4°C 91% 2.0 mph S3.2 kmh S 10.0 mph16.1 kmh 29.84 in1010.5 mb 0.00 in0.0 mm 0.00 in0.0 mm 0.00 in0.0 mm
04:54 AM 69.6°F20.9°C 66.8°F19.3°C 91% 3.0 mph NW4.8 kmh NW 6.0 mph9.7 kmh 29.82 in1009.8 mb 0.00 in0.0 mm 0.00 in0.0 mm 0.00 in0.0 mm
04:44 AM 69.6°F20.9°C 66.8°F19.3°C 91% 4.0 mph NW6.4 kmh NW 7.0 mph11.3 kmh 29.81 in1009.5 mb 0.00 in0.0 mm 0.00 in0.0 mm 0.00 in0.0 mm
04:34 AM 69.7°F20.9°C 66.9°F19.4°C 91% 3.0 mph NW4.8 kmh NW 7.0 mph11.3 kmh 29.81 in1009.5 mb 0.00 in0.0 mm 0.00 in0.0 mm 0.00 in0.0 mm
04:24 AM 69.6°F20.9°C 66.8°F19.3°C 91% Calm Calm 7.0 mph11.3 kmh 29.81 in1009.5 mb 0.00 in0.0 mm 0.00 in0.0 mm 0.00 in0.0 mm
04:14 AM 69.6°F20.9°C 66.5°F19.2°C 90% 4.0 mph NW6.4 kmh NW 8.0 mph12.9 kmh 29.80 in1009.1 mb 0.00 in0.0 mm 0.00 in0.0 mm 0.00 in0.0 mm
04:04 AM 69.6°F20.9°C 66.8°F19.3°C 91% 4.0 mph NW6.4 kmh NW 8.0 mph12.9 kmh 29.80 in1009.1 mb 0.00 in0.0 mm 0.00 in0.0 mm 0.00 in0.0 mm
03:54 AM 69.6°F20.9°C 66.8°F19.3°C 91% 2.0 mph NW3.2 kmh NW 9.0 mph14.5 kmh 29.80 in1009.1 mb 0.00 in0.0 mm 0.00 in0.0 mm 0.00 in0.0 mm
03:44 AM 69.6°F20.9°C 66.8°F19.3°C 91% 7.0 mph NW11.3 kmh NW 9.0 mph14.5 kmh 29.80 in1009.1 mb 0.00 in0.0 mm 0.00 in0.0 mm 0.00 in0.0 mm
03:34 AM 69.5°F20.8°C 66.8°F19.3°C 91% 4.0 mph NW6.4 kmh NW 6.0 mph9.7 kmh 29.80 in1009.1 mb 0.00 in0.0 mm 0.00 in0.0 mm 0.00 in0.0 mm
03:24 AM 69.5°F20.8°C 66.8°F19.3°C 91% 2.0 mph NW3.2 kmh NW 5.0 mph8.0 kmh 29.81 in1009.5 mb 0.00 in0.0 mm 0.00 in0.0 mm 0.00 in0.0 mm
03:14 AM 69.5°F20.8°C 66.8°F19.3°C 91% 2.0 mph NW3.2 kmh NW 5.0 mph8.0 kmh 29.81 in1009.5 mb 0.00 in0.0 mm 0.00 in0.0 mm 0.00 in0.0 mm
03:04 AM 69.5°F20.8°C 66.4°F19.1°C 90% 2.0 mph NW3.2 kmh NW 5.0 mph8.0 kmh 29.81 in1009.5 mb 0.00 in0.0 mm 0.00 in0.0 mm 0.00 in0.0 mm
02:54 AM 69.6°F20.9°C 66.5°F19.2°C 90% 2.0 mph NW3.2 kmh NW 5.0 mph8.0 kmh 29.81 in1009.5 mb 0.00 in0.0 mm 0.00 in0.0 mm 0.00 in0.0 mm
02:44 AM 69.7°F20.9°C 66.6°F19.2°C 90% 2.0 mph NW3.2 kmh NW 5.0 mph8.0 kmh 29.82 in1009.8 mb 0.00 in0.0 mm 0.00 in0.0 mm 0.00 in0.0 mm
02:34 AM 69.7°F20.9°C 66.6°F19.2°C 90% 2.0 mph NW3.2 kmh NW 6.0 mph9.7 kmh 29.82 in1009.8 mb 0.00 in0.0 mm 0.00 in0.0 mm 0.00 in0.0 mm
02:24 AM 69.7°F20.9°C 66.6°F19.2°C 90% 3.0 mph NW4.8 kmh NW 6.0 mph9.7 kmh 29.82 in1009.8 mb 0.00 in0.0 mm 0.00 in0.0 mm 0.00 in0.0 mm
02:14 AM 69.7°F20.9°C 66.6°F19.2°C 90% 2.0 mph NW3.2 kmh NW 5.0 mph8.0 kmh 29.81 in1009.5 mb 0.00 in0.0 mm 0.00 in0.0 mm 0.00 in0.0 mm
02:04 AM 69.7°F20.9°C 66.6°F19.2°C 90% 4.0 mph NW6.4 kmh NW 6.0 mph9.7 kmh 29.81 in1009.5 mb 0.00 in0.0 mm 0.00 in0.0 mm 0.00 in0.0 mm
01:54 AM 69.8°F21.0°C 66.4°F19.1°C 89% 3.0 mph NW4.8 kmh NW 6.0 mph9.7 kmh 29.82 in1009.8 mb 0.00 in0.0 mm 0.00 in0.0 mm 0.00 in0.0 mm
01:44 AM 69.9°F21.1°C 66.5°F19.2°C 89% 2.0 mph NW3.2 kmh NW 5.0 mph8.0 kmh 29.82 in1009.8 mb 0.00 in0.0 mm 0.00 in0.0 mm 0.00 in0.0 mm
01:34 AM 70.0°F21.1°C 66.6°F19.2°C 89% 2.0 mph NW3.2 kmh NW 5.0 mph8.0 kmh 29.82 in1009.8 mb 0.00 in0.0 mm 0.00 in0.0 mm 0.00 in0.0 mm
01:24 AM 70.1°F21.2°C 66.4°F19.1°C 88% 2.0 mph NW3.2 kmh NW 3.0 mph4.8 kmh 29.82 in1009.8 mb 0.00 in0.0 mm 0.00 in0.0 mm 0.00 in0.0 mm
01:14 AM 70.2°F21.2°C 66.5°F19.2°C 88% Calm Calm 2.0 mph3.2 kmh 29.83 in1010.2 mb 0.00 in0.0 mm 0.00 in0.0 mm 0.00 in0.0 mm
01:04 AM 70.3°F21.3°C 66.6°F19.2°C 88% Calm Calm 3.0 mph4.8 kmh 29.83 in1010.2 mb 0.00 in0.0 mm 0.00 in0.0 mm 0.00 in0.0 mm
12:54 AM 70.4°F21.3°C 66.3°F19.1°C 87% Calm Calm 2.0 mph3.2 kmh 29.83 in1010.2 mb 0.00 in0.0 mm 0.00 in0.0 mm 0.00 in0.0 mm
12:44 AM 70.5°F21.4°C 66.4°F19.1°C 87% 2.0 mph NW3.2 kmh NW 3.0 mph4.8 kmh 29.84 in1010.5 mb 0.00 in0.0 mm 0.00 in0.0 mm 0.00 in0.0 mm
12:34 AM 70.6°F21.4°C 66.2°F19.0°C 86% Calm Calm 3.0 mph4.8 kmh 29.84 in1010.5 mb 0.00 in0.0 mm 0.00 in0.0 mm 0.00 in0.0 mm
12:24 AM 70.8°F21.6°C 66.4°F19.1°C 86% Calm Calm 4.0 mph6.4 kmh 29.84 in1010.5 mb 0.00 in0.0 mm 0.00 in0.0 mm 0.00 in0.0 mm
12:14 AM 70.9°F21.6°C 66.5°F19.2°C 86% Calm Calm 4.0 mph6.4 kmh 29.84 in1010.5 mb 0.00 in0.0 mm 0.00 in0.0 mm 0.00 in0.0 mm
12:04 AM 70.9°F21.6°C 66.5°F19.2°C 86% 2.0 mph NW3.2 kmh NW 4.0 mph6.4 kmh 29.84 in1010.5 mb 0.00 in0.0 mm 0.00 in0.0 mm 0.00 in0.0 mm